Time;durP1;ratioP1;P1;durP2;ratioP2;P2;SDS_P1;SDS_P2;PMS_P1;PMS_P2;Temp;Humidity;BMP_temperature;BMP_pressure;BME280_temperature;BME280_humidity;BME280_pressure;Samples;Min_cycle;Max_cycle;Signal;HPM_P1;HPM_P2
2023/05/14 00:00:06;;;;;;;17.02;11.95;;;;;;;;;;5071088;28;20211;-64
2023/05/14 00:02:31;;;;;;;14.60;10.65;;;;;;;;;;5077806;28;20283;-64
2023/05/14 00:04:56;;;;;;;15.52;11.23;;;;;;;;;;5090768;28;20296;-65
2023/05/14 00:07:22;;;;;;;13.63;10.90;;;;;;;;;;5071887;28;20223;-64
2023/05/14 00:09:47;;;;;;;13.90;10.82;;;;;;;;;;5078179;28;20236;-65
2023/05/14 00:12:12;;;;;;;15.73;11.23;;;;;;;;;;5090178;28;20230;-64
2023/05/14 00:14:37;;;;;;;18.75;12.63;;;;;;;;;;5090918;28;20229;-64
2023/05/14 00:17:03;;;;;;;17.70;12.52;;;;;;;;;;5080169;28;20229;-64
2023/05/14 00:19:28;;;;;;;18.38;13.05;;;;;;;;;;5070515;28;20218;-64
2023/05/14 00:21:53;;;;;;;16.27;11.70;;;;;;;;;;5071194;28;20206;-65
2023/05/14 00:24:18;;;;;;;16.35;13.02;;;;;;;;;;5070494;28;20254;-64
2023/05/14 00:26:44;;;;;;;16.88;12.35;;;;;;;;;;5070567;28;20313;-64
2023/05/14 00:29:09;;;;;;;17.70;12.48;;;;;;;;;;5070180;28;20301;-64
2023/05/14 00:31:34;;;;;;;19.73;13.07;;;;;;;;;;5071010;28;20738;-64
2023/05/14 00:34:00;;;;;;;17.67;12.43;;;;;;;;;;5070080;28;20252;-64
2023/05/14 00:36:25;;;;;;;19.25;12.00;;;;;;;;;;5070363;28;20221;-64
2023/05/14 00:38:50;;;;;;;16.40;12.02;;;;;;;;;;5070886;28;20207;-64
2023/05/14 00:41:16;;;;;;;17.92;12.25;;;;;;;;;;5069443;28;20249;-64
2023/05/14 00:43:41;;;;;;;18.55;13.48;;;;;;;;;;5070518;28;20214;-64
2023/05/14 00:46:06;;;;;;;20.17;13.32;;;;;;;;;;5069820;28;20693;-64
2023/05/14 00:48:31;;;;;;;15.35;12.80;;;;;;;;;;5070222;28;20215;-65
2023/05/14 00:50:57;;;;;;;17.70;13.07;;;;;;;;;;5070557;28;20210;-65
2023/05/14 00:53:22;;;;;;;18.85;13.63;;;;;;;;;;5069443;28;20248;-64
2023/05/14 00:55:47;;;;;;;19.42;13.40;;;;;;;;;;5070551;28;20291;-65
2023/05/14 00:58:13;;;;;;;17.63;13.10;;;;;;;;;;5069943;28;20210;-64
2023/05/14 01:00:38;;;;;;;20.77;12.48;;;;;;;;;;5069466;28;20233;-64
2023/05/14 01:03:04;;;;;;;16.25;12.55;;;;;;;;;;5069795;28;20252;-64
2023/05/14 01:05:31;;;;;;;17.02;12.43;;;;;;;;;;5073830;28;20210;-64
2023/05/14 01:08:00;;;;;;;18.92;13.35;;;;;;;;;;5089929;28;20279;-64
2023/05/14 01:10:26;;;;;;;17.55;13.68;;;;;;;;;;5077921;28;20645;-64
2023/05/14 01:12:58;;;;;;;22.48;14.20;;;;;;;;;;5070223;28;20253;-64
2023/05/14 01:15:24;;;;;;;17.98;13.43;;;;;;;;;;5068785;28;20222;-64
2023/05/14 01:17:52;;;;;;;20.27;13.05;;;;;;;;;;5087748;28;20230;-64
2023/05/14 01:20:18;;;;;;;17.15;13.23;;;;;;;;;;5089744;28;20205;-64
2023/05/14 01:22:43;;;;;;;17.30;13.52;;;;;;;;;;5088392;28;20206;-64
2023/05/14 01:25:08;;;;;;;18.65;13.90;;;;;;;;;;5077065;28;20218;-64
2023/05/14 01:27:38;;;;;;;19.10;14.25;;;;;;;;;;5069820;28;20206;-64
2023/05/14 01:30:04;;;;;;;20.08;14.93;;;;;;;;;;5067616;28;20697;-64
2023/05/14 01:32:29;;;;;;;20.98;14.18;;;;;;;;;;5070243;28;20245;-64
2023/05/14 01:34:55;;;;;;;22.02;16.40;;;;;;;;;;5068770;28;20210;-64
2023/05/14 01:37:20;;;;;;;16.48;13.05;;;;;;;;;;5067577;28;20309;-65
2023/05/14 01:39:45;;;;;;;19.52;14.32;;;;;;;;;;5070136;28;20206;-64
2023/05/14 01:42:11;;;;;;;17.20;13.32;;;;;;;;;;5085434;28;20214;-64
2023/05/14 01:44:36;;;;;;;16.48;14.20;;;;;;;;;;5089368;28;20628;-64
2023/05/14 01:47:02;;;;;;;19.85;13.65;;;;;;;;;;5089644;28;20228;-64
2023/05/14 01:49:27;;;;;;;20.17;14.65;;;;;;;;;;5089385;28;20657;-64
2023/05/14 01:51:53;;;;;;;22.88;15.48;;;;;;;;;;5089984;28;20210;-64
2023/05/14 01:54:18;;;;;;;22.83;14.70;;;;;;;;;;5089895;28;20198;-64
2023/05/14 01:56:43;;;;;;;21.52;15.65;;;;;;;;;;5089170;28;20628;-64
2023/05/14 01:59:09;;;;;;;16.23;12.35;;;;;;;;;;5089674;28;20244;-64
2023/05/14 02:01:34;;;;;;;18.23;14.18;;;;;;;;;;5088726;28;20209;-64
2023/05/14 02:03:59;;;;;;;20.80;16.20;;;;;;;;;;5067455;28;20241;-64
2023/05/14 02:06:25;;;;;;;19.52;15.73;;;;;;;;;;5069186;28;20210;-64
2023/05/14 02:08:50;;;;;;;22.20;17.25;;;;;;;;;;5069920;28;20284;-64
2023/05/14 02:11:16;;;;;;;23.25;16.98;;;;;;;;;;5087246;28;20221;-64
2023/05/14 02:13:41;;;;;;;22.05;16.73;;;;;;;;;;5089990;28;20225;-64
2023/05/14 02:16:06;;;;;;;25.67;17.85;;;;;;;;;;5086724;28;20210;-63
2023/05/14 02:18:31;;;;;;;24.00;17.38;;;;;;;;;;5069147;28;20690;-64
2023/05/14 02:20:57;;;;;;;24.85;18.35;;;;;;;;;;5067998;28;20218;-64
2023/05/14 02:23:22;;;;;;;23.33;17.80;;;;;;;;;;5069210;28;20218;-64
2023/05/14 02:25:47;;;;;;;25.85;17.75;;;;;;;;;;5068931;28;20206;-64
2023/05/14 02:28:12;;;;;;;24.75;18.00;;;;;;;;;;5069254;28;20218;-65
2023/05/14 02:30:38;;;;;;;22.75;17.30;;;;;;;;;;5069443;28;20297;-65
2023/05/14 02:33:03;;;;;;;23.55;16.85;;;;;;;;;;5068476;28;20233;-64
2023/05/14 02:35:28;;;;;;;22.15;17.10;;;;;;;;;;5069481;28;20666;-64
2023/05/14 02:37:53;;;;;;;19.88;15.77;;;;;;;;;;5071504;28;20202;-64
2023/05/14 02:40:19;;;;;;;22.05;17.10;;;;;;;;;;5071830;28;20297;-63
2023/05/14 02:42:44;;;;;;;23.13;17.80;;;;;;;;;;5072990;28;20582;-64
2023/05/14 02:45:09;;;;;;;27.90;18.48;;;;;;;;;;5072522;28;20600;-64
2023/05/14 02:47:35;;;;;;;26.00;18.75;;;;;;;;;;5072389;28;20210;-64
2023/05/14 02:50:00;;;;;;;26.50;18.30;;;;;;;;;;5072789;28;20214;-64
2023/05/14 02:52:25;;;;;;;21.88;17.33;;;;;;;;;;5072197;28;20222;-64
2023/05/14 02:54:50;;;;;;;26.33;20.02;;;;;;;;;;5072194;28;20248;-64
2023/05/14 02:57:16;;;;;;;23.73;19.50;;;;;;;;;;5072446;28;20213;-64
2023/05/14 02:59:41;;;;;;;22.63;18.30;;;;;;;;;;5072989;28;20242;-64
2023/05/14 03:02:06;;;;;;;23.90;19.60;;;;;;;;;;5071066;28;20195;-64
2023/05/14 03:04:31;;;;;;;26.75;19.23;;;;;;;;;;5071319;28;20214;-64
2023/05/14 03:06:57;;;;;;;23.00;17.17;;;;;;;;;;5087595;28;20222;-65
2023/05/14 03:09:22;;;;;;;25.17;19.98;;;;;;;;;;5089148;28;20673;-64
2023/05/14 03:11:47;;;;;;;24.70;18.23;;;;;;;;;;5072442;28;20219;-64
2023/05/14 03:14:12;;;;;;;24.50;19.60;;;;;;;;;;5071126;28;20234;-64
2023/05/14 03:16:40;;;;;;;24.23;20.30;;;;;;;;;;5070365;28;20206;-64
2023/05/14 03:19:06;;;;;;;25.17;19.20;;;;;;;;;;5072072;28;20218;-63
2023/05/14 03:21:31;;;;;;;22.17;18.02;;;;;;;;;;5071697;28;20221;-64
2023/05/14 03:23:56;;;;;;;25.77;19.85;;;;;;;;;;5070945;28;20226;-64
2023/05/14 03:26:21;;;;;;;28.77;20.70;;;;;;;;;;5071886;28;20297;-64
2023/05/14 03:28:47;;;;;;;28.17;19.73;;;;;;;;;;5071585;28;20279;-64
2023/05/14 03:31:12;;;;;;;26.60;20.92;;;;;;;;;;5071636;28;20213;-64
2023/05/14 03:33:37;;;;;;;29.40;20.63;;;;;;;;;;5070935;28;20217;-64
2023/05/14 03:36:03;;;;;;;25.35;20.58;;;;;;;;;;5071039;28;21060;-64
2023/05/14 03:38:28;;;;;;;27.85;20.35;;;;;;;;;;5072018;28;20206;-64
2023/05/14 03:40:53;;;;;;;26.83;20.42;;;;;;;;;;5071891;28;20483;-64
2023/05/14 03:43:18;;;;;;;26.77;20.75;;;;;;;;;;5070745;28;20257;-64
2023/05/14 03:45:44;;;;;;;25.25;18.40;;;;;;;;;;5071971;28;20229;-64
2023/05/14 03:48:09;;;;;;;28.13;20.80;;;;;;;;;;5070967;28;20588;-64
2023/05/14 03:50:34;;;;;;;28.40;21.58;;;;;;;;;;5070515;28;20245;-64
2023/05/14 03:53:00;;;;;;;29.48;20.02;;;;;;;;;;5071702;28;20567;-64
2023/05/14 03:55:25;;;;;;;27.70;20.20;;;;;;;;;;5071225;28;20250;-64
2023/05/14 03:57:50;;;;;;;28.63;20.95;;;;;;;;;;5071208;28;20229;-64
2023/05/14 04:00:16;;;;;;;31.48;21.35;;;;;;;;;;5071204;28;20263;-64
2023/05/14 04:02:41;;;;;;;28.08;20.77;;;;;;;;;;5079224;28;20205;-64
2023/05/14 04:05:06;;;;;;;30.13;20.83;;;;;;;;;;5090457;28;20229;-63
2023/05/14 04:07:32;;;;;;;27.48;20.15;;;;;;;;;;5071523;28;20230;-64
2023/05/14 04:09:58;;;;;;;32.30;21.35;;;;;;;;;;5079340;28;20218;-64
2023/05/14 04:12:23;;;;;;;27.73;19.73;;;;;;;;;;5090402;28;20218;-64
2023/05/14 04:14:49;;;;;;;25.90;19.75;;;;;;;;;;5091209;28;20229;-64
2023/05/14 04:17:14;;;;;;;28.30;19.88;;;;;;;;;;5078103;28;20294;-64
2023/05/14 04:19:39;;;;;;;25.00;19.40;;;;;;;;;;5071099;28;20214;-64
2023/05/14 04:22:05;;;;;;;25.70;18.55;;;;;;;;;;5070609;28;20214;-68
2023/05/14 04:24:30;;;;;;;25.33;19.65;;;;;;;;;;5069058;28;20215;-65
2023/05/14 04:26:55;;;;;;;25.45;18.63;;;;;;;;;;5069818;28;20883;-64
2023/05/14 04:29:20;;;;;;;30.02;19.75;;;;;;;;;;5076280;28;20242;-64
2023/05/14 04:31:46;;;;;;;30.50;19.40;;;;;;;;;;5061032;28;20214;-64
2023/05/14 04:34:11;;;;;;;25.70;20.08;;;;;;;;;;5069251;28;20221;-64
2023/05/14 04:36:36;;;;;;;24.33;17.73;;;;;;;;;;5081619;28;20206;-64
2023/05/14 04:39:01;;;;;;;23.13;18.08;;;;;;;;;;5080050;28;20571;-64
2023/05/14 04:41:27;;;;;;;29.45;20.92;;;;;;;;;;5074357;28;20230;-64
2023/05/14 04:43:54;;;;;;;31.00;20.23;;;;;;;;;;5054384;28;20603;-64
2023/05/14 04:46:19;;;;;;;31.40;21.35;;;;;;;;;;5052569;28;20244;-64
2023/05/14 04:48:44;;;;;;;23.73;18.83;;;;;;;;;;5060301;28;20910;-65
2023/05/14 04:51:10;;;;;;;27.70;18.60;;;;;;;;;;5060516;28;20659;-64
2023/05/14 04:53:35;;;;;;;22.45;18.23;;;;;;;;;;5060346;28;20209;-64
2023/05/14 04:56:00;;;;;;;21.75;18.52;;;;;;;;;;5060813;28;20271;-64
2023/05/14 04:58:27;;;;;;;24.40;18.92;;;;;;;;;;5072313;28;20209;-65
2023/05/14 05:00:53;;;;;;;22.15;17.35;;;;;;;;;;5061239;28;20198;-65
2023/05/14 05:03:18;;;;;;;28.38;18.15;;;;;;;;;;5056391;28;20222;-64
2023/05/14 05:05:43;;;;;;;25.63;19.05;;;;;;;;;;5053340;28;20207;-64
2023/05/14 05:08:10;;;;;;;27.27;19.00;;;;;;;;;;5052495;28;20210;-64
2023/05/14 05:10:35;;;;;;;28.67;18.20;;;;;;;;;;5058518;28;20207;-64
2023/05/14 05:13:00;;;;;;;23.05;17.17;;;;;;;;;;5060298;28;20295;-61
2023/05/14 05:15:25;;;;;;;25.85;17.17;;;;;;;;;;5060321;28;20693;-64
2023/05/14 05:17:51;;;;;;;20.70;17.10;;;;;;;;;;5060717;28;20292;-64
2023/05/14 05:20:16;;;;;;;23.17;16.58;;;;;;;;;;5060116;28;20222;-64
2023/05/14 05:22:41;;;;;;;21.17;16.42;;;;;;;;;;5060074;28;20692;-64
2023/05/14 05:25:07;;;;;;;23.90;16.55;;;;;;;;;;5058270;28;20392;-64
2023/05/14 05:27:33;;;;;;;19.90;15.32;;;;;;;;;;5061754;28;20309;-64
2023/05/14 05:30:00;;;;;;;21.70;15.40;;;;;;;;;;5053272;28;20576;-64
2023/05/14 05:32:25;;;;;;;23.77;15.45;;;;;;;;;;5052743;28;20446;-64
2023/05/14 05:34:50;;;;;;;20.27;14.77;;;;;;;;;;5074594;28;20217;-64
2023/05/14 05:37:16;;;;;;;23.08;16.02;;;;;;;;;;5079974;28;20205;-65
2023/05/14 05:39:41;;;;;;;25.63;15.18;;;;;;;;;;5084845;28;20668;-64
2023/05/14 05:42:07;;;;;;;19.13;14.40;;;;;;;;;;5072035;28;20287;-64
2023/05/14 05:44:32;;;;;;;20.13;14.93;;;;;;;;;;5070137;28;20218;-66
2023/05/14 05:46:57;;;;;;;21.50;15.47;;;;;;;;;;5069896;28;20482;-65
2023/05/14 05:49:22;;;;;;;20.00;14.77;;;;;;;;;;5068838;28;20569;-63
2023/05/14 05:51:48;;;;;;;21.53;15.97;;;;;;;;;;5069565;28;20449;-64
2023/05/14 05:54:13;;;;;;;21.50;15.65;;;;;;;;;;5077191;28;20236;-63
2023/05/14 05:56:38;;;;;;;20.13;15.00;;;;;;;;;;5080545;28;20267;-64
2023/05/14 05:59:03;;;;;;;21.60;14.43;;;;;;;;;;5081969;28;20218;-64
2023/05/14 06:01:29;;;;;;;17.38;13.90;;;;;;;;;;5080161;28;20252;-64
2023/05/14 06:03:55;;;;;;;21.58;14.30;;;;;;;;;;5077970;28;20218;-64
2023/05/14 06:06:20;;;;;;;18.08;13.23;;;;;;;;;;5079089;28;20239;-64
2023/05/14 06:08:46;;;;;;;16.92;13.82;;;;;;;;;;5082455;28;20210;-64
2023/05/14 06:11:11;;;;;;;19.02;13.63;;;;;;;;;;5075564;28;20271;-63
2023/05/14 06:13:37;;;;;;;18.08;14.48;;;;;;;;;;5080495;28;20230;-64
2023/05/14 06:16:02;;;;;;;18.60;13.43;;;;;;;;;;5078030;28;20290;-62
2023/05/14 06:18:27;;;;;;;17.33;13.93;;;;;;;;;;5091078;28;20454;-64
2023/05/14 06:20:55;;;;;;;18.23;13.23;;;;;;;;;;5084174;28;20213;-63
2023/05/14 06:23:20;;;;;;;18.65;13.65;;;;;;;;;;5083707;28;20307;-64
2023/05/14 06:25:45;;;;;;;20.07;13.33;;;;;;;;;;5072281;28;20914;-62
2023/05/14 06:28:11;;;;;;;17.67;12.68;;;;;;;;;;5073011;28;20211;-63
2023/05/14 06:30:36;;;;;;;20.75;12.65;;;;;;;;;;5073244;28;20248;-63
2023/05/14 06:33:01;;;;;;;20.00;12.95;;;;;;;;;;5072237;28;20209;-62
2023/05/14 06:35:26;;;;;;;18.45;12.00;;;;;;;;;;5073313;28;20302;-63
2023/05/14 06:37:52;;;;;;;16.48;13.05;;;;;;;;;;5072289;28;20211;-63
2023/05/14 06:40:17;;;;;;;17.30;12.23;;;;;;;;;;5074788;28;20726;-63
2023/05/14 06:42:42;;;;;;;13.98;11.82;;;;;;;;;;5067203;28;20256;-64
2023/05/14 06:45:08;;;;;;;16.77;12.30;;;;;;;;;;5071974;28;20283;-63
2023/05/14 06:47:33;;;;;;;16.85;11.00;;;;;;;;;;5075721;28;20214;-63
2023/05/14 06:50:00;;;;;;;15.68;12.25;;;;;;;;;;5093482;28;20205;-63
2023/05/14 06:52:26;;;;;;;17.40;11.98;;;;;;;;;;5090500;28;20213;-64
2023/05/14 06:54:51;;;;;;;17.02;11.68;;;;;;;;;;5093131;28;20201;-64
2023/05/14 06:57:16;;;;;;;13.45;12.05;;;;;;;;;;5092484;28;20218;-64
2023/05/14 06:59:41;;;;;;;14.88;11.73;;;;;;;;;;5092386;28;20209;-64
2023/05/14 07:02:07;;;;;;;15.48;11.35;;;;;;;;;;5092488;28;20665;-63
2023/05/14 07:04:32;;;;;;;14.90;12.07;;;;;;;;;;5092817;28;20246;-64
2023/05/14 07:06:57;;;;;;;18.95;12.18;;;;;;;;;;5076334;28;20237;-64
2023/05/14 07:09:22;;;;;;;16.23;11.82;;;;;;;;;;5075255;28;20233;-63
2023/05/14 07:11:48;;;;;;;14.52;11.02;;;;;;;;;;5092769;28;20632;-63
2023/05/14 07:14:13;;;;;;;13.95;10.38;;;;;;;;;;5091507;28;20308;-64
2023/05/14 07:16:39;;;;;;;14.50;11.20;;;;;;;;;;5085538;28;20203;-64
2023/05/14 07:19:04;;;;;;;12.68;9.85;;;;;;;;;;5072134;28;20210;-63
2023/05/14 07:21:30;;;;;;;13.50;10.80;;;;;;;;;;5072263;28;20662;-63
2023/05/14 07:23:55;;;;;;;14.52;11.23;;;;;;;;;;5083070;28;20673;-64
2023/05/14 07:26:23;;;;;;;14.43;9.48;;;;;;;;;;5071927;28;20216;-66
2023/05/14 07:28:48;;;;;;;14.13;9.70;;;;;;;;;;5071523;28;20271;-64
2023/05/14 07:31:13;;;;;;;14.55;9.85;;;;;;;;;;5071842;28;20634;-63
2023/05/14 07:33:39;;;;;;;15.68;9.73;;;;;;;;;;5072091;28;20210;-64
2023/05/14 07:36:04;;;;;;;11.90;9.32;;;;;;;;;;5071035;28;20222;-63
2023/05/14 07:38:29;;;;;;;15.52;9.48;;;;;;;;;;5071950;28;20669;-64
2023/05/14 07:40:55;;;;;;;11.98;9.07;;;;;;;;;;5072003;28;20253;-64
2023/05/14 07:43:20;;;;;;;14.93;8.98;;;;;;;;;;5070767;28;20691;-63
2023/05/14 07:45:45;;;;;;;13.15;9.27;;;;;;;;;;5072047;28;20210;-64
2023/05/14 07:48:11;;;;;;;12.88;8.10;;;;;;;;;;5070832;28;20621;-64
2023/05/14 07:50:36;;;;;;;11.80;8.25;;;;;;;;;;5071720;28;20577;-64
2023/05/14 07:53:01;;;;;;;11.18;7.80;;;;;;;;;;5071019;28;20218;-64
2023/05/14 07:55:27;;;;;;;12.27;8.05;;;;;;;;;;5070997;28;20620;-64
2023/05/14 07:57:52;;;;;;;12.02;8.07;;;;;;;;;;5074322;28;20688;-63
2023/05/14 08:00:17;;;;;;;11.75;7.57;;;;;;;;;;5083844;28;20203;-65
2023/05/14 08:02:43;;;;;;;10.75;7.65;;;;;;;;;;5091027;28;20205;-65
2023/05/14 08:05:08;;;;;;;12.25;7.43;;;;;;;;;;5090696;28;20222;-64
2023/05/14 08:07:33;;;;;;;10.05;7.50;;;;;;;;;;5071395;28;20226;-65
2023/05/14 08:09:59;;;;;;;11.38;7.00;;;;;;;;;;5078274;28;20289;-66
2023/05/14 08:12:25;;;;;;;12.38;6.78;;;;;;;;;;5079657;28;20226;-64
2023/05/14 08:14:50;;;;;;;11.77;7.30;;;;;;;;;;5091246;28;20457;-64
2023/05/14 08:17:16;;;;;;;12.95;7.45;;;;;;;;;;5078122;28;20467;-64
2023/05/14 08:19:41;;;;;;;11.02;6.97;;;;;;;;;;5071119;28;20206;-65
2023/05/14 08:22:07;;;;;;;11.65;7.45;;;;;;;;;;5070631;28;20263;-63
2023/05/14 08:24:32;;;;;;;10.77;6.50;;;;;;;;;;5076323;28;20222;-64
2023/05/14 08:26:57;;;;;;;9.02;5.75;;;;;;;;;;5085489;28;20240;-65
2023/05/14 08:29:23;;;;;;;11.52;6.30;;;;;;;;;;5081798;28;20201;-65
2023/05/14 08:31:48;;;;;;;8.38;5.30;;;;;;;;;;5079832;28;20207;-63
2023/05/14 08:34:13;;;;;;;8.85;5.55;;;;;;;;;;5081737;28;20206;-64
2023/05/14 08:36:39;;;;;;;9.75;5.20;;;;;;;;;;5080145;28;20229;-64
2023/05/14 08:39:06;;;;;;;6.15;4.95;;;;;;;;;;5084862;28;20206;-63
2023/05/14 08:41:31;;;;;;;8.43;5.60;;;;;;;;;;5081893;28;20742;-64
2023/05/14 08:44:04;;;;;;;9.15;4.95;;;;;;;;;;5083671;28;20310;-65
2023/05/14 08:46:30;;;;;;;7.38;4.60;;;;;;;;;;5078690;28;20290;-65
2023/05/14 08:48:57;;;;;;;8.00;4.38;;;;;;;;;;5077327;28;20745;-65
2023/05/14 08:51:22;;;;;;;8.50;4.03;;;;;;;;;;5070620;28;20658;-65
2023/05/14 08:53:48;;;;;;;8.82;4.93;;;;;;;;;;5068677;28;20211;-65
2023/05/14 08:56:13;;;;;;;8.63;4.20;;;;;;;;;;5070200;28;20233;-65
2023/05/14 08:58:38;;;;;;;6.72;3.55;;;;;;;;;;5068598;28;20206;-65
2023/05/14 09:01:03;;;;;;;10.50;4.05;;;;;;;;;;5070123;28;20221;-65
2023/05/14 09:03:30;;;;;;;9.25;4.35;;;;;;;;;;5070521;28;20678;-64
2023/05/14 09:05:55;;;;;;;9.63;4.50;;;;;;;;;;5076635;28;20213;-65
2023/05/14 09:08:20;;;;;;;7.97;4.75;;;;;;;;;;5090203;28;20209;-64
2023/05/14 09:10:46;;;;;;;7.28;5.35;;;;;;;;;;5075776;28;20216;-64
2023/05/14 09:13:11;;;;;;;9.45;5.45;;;;;;;;;;5069103;28;20269;-64
2023/05/14 09:15:36;;;;;;;12.07;7.00;;;;;;;;;;5070478;28;20280;-65
2023/05/14 09:18:20;;;;;;;9.93;6.95;;;;;;;;;;5088637;28;20216;-64
2023/05/14 09:20:45;;;;;;;13.02;7.72;;;;;;;;;;5089757;28;20206;-65
2023/05/14 09:23:10;;;;;;;10.13;7.63;;;;;;;;;;5089757;28;20703;-64
2023/05/14 09:25:36;;;;;;;13.15;7.47;;;;;;;;;;5090358;28;20304;-65
2023/05/14 09:28:04;;;;;;;11.63;7.43;;;;;;;;;;5089316;28;20712;-64
2023/05/14 09:30:30;;;;;;;12.98;7.32;;;;;;;;;;5090038;28;20262;-64
2023/05/14 09:32:55;;;;;;;10.30;8.27;;;;;;;;;;5079425;28;20214;-65
2023/05/14 09:35:21;;;;;;;12.20;7.57;;;;;;;;;;5064130;28;20587;-64
2023/05/14 09:37:47;;;;;;;10.15;7.65;;;;;;;;;;5067511;28;20681;-65
2023/05/14 09:40:12;;;;;;;9.93;7.35;;;;;;;;;;5078870;28;20221;-65
2023/05/14 09:42:38;;;;;;;8.90;5.53;;;;;;;;;;5068050;28;20210;-64
2023/05/14 09:45:04;;;;;;;10.43;7.10;;;;;;;;;;5064107;28;20230;-64
2023/05/14 09:47:29;;;;;;;12.45;7.20;;;;;;;;;;5065836;28;20214;-64
2023/05/14 09:49:55;;;;;;;12.38;7.28;;;;;;;;;;5072815;28;20502;-65
2023/05/14 09:52:22;;;;;;;8.48;6.13;;;;;;;;;;5072806;28;20267;-64
2023/05/14 09:54:47;;;;;;;6.97;4.38;;;;;;;;;;5067325;28;20251;-65
2023/05/14 09:57:12;;;;;;;11.85;6.43;;;;;;;;;;5059824;28;20210;-64
2023/05/14 09:59:38;;;;;;;7.15;3.70;;;;;;;;;;5059367;28;20222;-65
2023/05/14 10:02:03;;;;;;;8.10;4.25;;;;;;;;;;5060850;28;21027;-64
2023/05/14 10:04:28;;;;;;;7.25;3.88;;;;;;;;;;5066287;28;20269;-64
2023/05/14 10:06:54;;;;;;;8.13;3.40;;;;;;;;;;5072581;28;20201;-65
2023/05/14 10:09:20;;;;;;;6.53;3.05;;;;;;;;;;5084034;28;20209;-65
2023/05/14 10:11:46;;;;;;;7.22;3.08;;;;;;;;;;5086928;28;20216;-65
2023/05/14 10:14:17;;;;;;;4.82;2.47;;;;;;;;;;5086938;28;20221;-64
2023/05/14 10:16:47;;;;;;;4.70;2.75;;;;;;;;;;5078965;28;20301;-65
2023/05/14 10:19:12;;;;;;;5.50;3.10;;;;;;;;;;5080659;28;20214;-64
2023/05/14 10:21:39;;;;;;;11.57;6.75;;;;;;;;;;5079736;28;20209;-65
2023/05/14 10:24:04;;;;;;;6.30;4.20;;;;;;;;;;5079309;28;20260;-65
2023/05/14 10:26:31;;;;;;;8.27;4.13;;;;;;;;;;5083694;28;20277;-65
2023/05/14 10:28:56;;;;;;;6.00;3.40;;;;;;;;;;5086328;28;20579;-65
2023/05/14 10:31:22;;;;;;;6.85;3.45;;;;;;;;;;5086301;28;20206;-65
2023/05/14 10:33:49;;;;;;;8.80;3.60;;;;;;;;;;5089078;28;20213;-64
2023/05/14 10:36:14;;;;;;;6.10;3.90;;;;;;;;;;5093071;28;20237;-65
2023/05/14 10:38:39;;;;;;;6.95;3.78;;;;;;;;;;5092348;28;20256;-65
2023/05/14 10:41:06;;;;;;;7.18;3.65;;;;;;;;;;5087338;28;20572;-64
2023/05/14 10:43:35;;;;;;;5.85;3.60;;;;;;;;;;5072656;28;20623;-65
2023/05/14 10:46:01;;;;;;;8.88;3.13;;;;;;;;;;5071967;28;20202;-65
2023/05/14 10:48:26;;;;;;;7.38;3.33;;;;;;;;;;5072592;28;20210;-65
2023/05/14 10:50:52;;;;;;;6.07;3.30;;;;;;;;;;5073706;28;20220;-64
2023/05/14 10:53:17;;;;;;;7.72;3.60;;;;;;;;;;5071452;28;20246;-65
2023/05/14 10:55:43;;;;;;;5.00;3.00;;;;;;;;;;5072786;28;20308;-64
2023/05/14 10:58:09;;;;;;;9.98;3.55;;;;;;;;;;5069956;28;20723;-64
2023/05/14 11:00:34;;;;;;;8.50;4.07;;;;;;;;;;5071348;28;20216;-64
2023/05/14 11:03:02;;;;;;;10.73;3.92;;;;;;;;;;5072383;28;20289;-65
2023/05/14 11:05:27;;;;;;;6.50;3.90;;;;;;;;;;5063213;28;20674;-64
2023/05/14 11:07:52;;;;;;;6.28;3.50;;;;;;;;;;5080997;28;20237;-65
2023/05/14 11:10:18;;;;;;;4.65;3.25;;;;;;;;;;5079868;28;20301;-64
2023/05/14 11:12:44;;;;;;;5.55;3.35;;;;;;;;;;5070219;28;20230;-64
2023/05/14 11:15:10;;;;;;;5.07;3.28;;;;;;;;;;5071904;28;20237;-64
2023/05/14 11:17:35;;;;;;;6.38;3.35;;;;;;;;;;5086045;28;20239;-64
2023/05/14 11:20:01;;;;;;;6.53;3.65;;;;;;;;;;5091638;28;20610;-63
2023/05/14 11:22:26;;;;;;;9.02;3.40;;;;;;;;;;5091053;28;20217;-64
2023/05/14 11:24:51;;;;;;;9.98;3.30;;;;;;;;;;5092384;28;20579;-65
2023/05/14 11:27:17;;;;;;;5.70;3.03;;;;;;;;;;5089956;28;20213;-65
2023/05/14 11:29:43;;;;;;;5.20;2.72;;;;;;;;;;5092145;28;20298;-65
2023/05/14 11:32:08;;;;;;;6.68;3.20;;;;;;;;;;5081313;28;20218;-64
2023/05/14 11:34:34;;;;;;;5.57;3.30;;;;;;;;;;5091521;28;20209;-65
2023/05/14 11:37:06;;;;;;;5.82;2.63;;;;;;;;;;5080601;28;20275;-64
2023/05/14 11:39:31;;;;;;;5.40;2.90;;;;;;;;;;5077139;28;20209;-65
2023/05/14 11:41:57;;;;;;;4.40;2.50;;;;;;;;;;5087490;28;20225;-64
2023/05/14 11:44:23;;;;;;;3.80;2.25;;;;;;;;;;5085941;28;20238;-64
2023/05/14 11:46:54;;;;;;;7.78;2.80;;;;;;;;;;5091928;28;20206;-65
2023/05/14 11:49:21;;;;;;;3.97;2.70;;;;;;;;;;5090674;28;20217;-64
2023/05/14 11:51:46;;;;;;;4.72;2.70;;;;;;;;;;5090585;28;20234;-65
2023/05/14 11:54:12;;;;;;;5.88;2.70;;;;;;;;;;5091332;28;20274;-64
2023/05/14 11:56:38;;;;;;;6.10;2.95;;;;;;;;;;5091120;28;20202;-65
2023/05/14 11:59:03;;;;;;;4.85;3.17;;;;;;;;;;5091386;28;20733;-64
2023/05/14 12:01:33;;;;;;;5.78;3.15;;;;;;;;;;5091029;28;20218;-64
2023/05/14 12:03:59;;;;;;;6.93;3.17;;;;;;;;;;5091620;28;20318;-65
2023/05/14 12:06:29;;;;;;;8.15;2.60;;;;;;;;;;5080030;28;20676;-64
2023/05/14 12:08:54;;;;;;;4.03;2.20;;;;;;;;;;5070771;28;20225;-64
2023/05/14 12:11:20;;;;;;;4.35;2.33;;;;;;;;;;5089668;28;21253;-65
2023/05/14 12:13:45;;;;;;;7.28;2.60;;;;;;;;;;5091246;28;20222;-65
2023/05/14 12:16:10;;;;;;;5.03;2.55;;;;;;;;;;5087188;28;20214;-64
2023/05/14 12:18:35;;;;;;;5.00;2.60;;;;;;;;;;5071237;28;20218;-65
2023/05/14 12:21:01;;;;;;;8.10;3.08;;;;;;;;;;5070776;28;20222;-63
2023/05/14 12:23:26;;;;;;;6.05;2.80;;;;;;;;;;5070308;28;20662;-65
2023/05/14 12:25:52;;;;;;;5.43;2.42;;;;;;;;;;5071083;28;20234;-65
2023/05/14 12:28:17;;;;;;;5.13;2.58;;;;;;;;;;5070601;28;20757;-65
2023/05/14 12:30:43;;;;;;;9.13;2.83;;;;;;;;;;5070239;28;20215;-65
2023/05/14 12:33:09;;;;;;;6.38;2.30;;;;;;;;;;5070614;28;20221;-64
2023/05/14 12:35:35;;;;;;;6.35;2.40;;;;;;;;;;5071032;28;20210;-65
2023/05/14 12:38:01;;;;;;;6.13;2.20;;;;;;;;;;5069781;28;20305;-64
2023/05/14 12:40:26;;;;;;;6.60;2.25;;;;;;;;;;5070763;28;20285;-65
2023/05/14 12:42:51;;;;;;;4.15;2.00;;;;;;;;;;5070835;28;20198;-65
2023/05/14 12:45:16;;;;;;;6.43;2.22;;;;;;;;;;5069370;28;20227;-65
2023/05/14 12:47:42;;;;;;;7.07;2.63;;;;;;;;;;5070855;28;20206;-64
2023/05/14 12:50:07;;;;;;;4.68;2.00;;;;;;;;;;5070263;28;20702;-64
2023/05/14 12:52:32;;;;;;;5.25;2.25;;;;;;;;;;5069989;28;20210;-65
2023/05/14 12:54:58;;;;;;;3.25;2.20;;;;;;;;;;5070787;28;20336;-65
2023/05/14 12:57:23;;;;;;;4.82;2.40;;;;;;;;;;5070302;28;20206;-65
2023/05/14 12:59:48;;;;;;;4.65;2.42;;;;;;;;;;5069734;28;20210;-65
2023/05/14 13:02:14;;;;;;;4.75;2.30;;;;;;;;;;5070186;28;20580;-64
2023/05/14 13:04:40;;;;;;;7.90;2.85;;;;;;;;;;5069653;28;20344;-65
2023/05/14 13:07:05;;;;;;;6.47;2.58;;;;;;;;;;5086535;28;20673;-65
2023/05/14 13:09:30;;;;;;;7.68;2.40;;;;;;;;;;5086359;28;20297;-65
2023/05/14 13:11:56;;;;;;;3.65;2.10;;;;;;;;;;5069319;28;20249;-65
2023/05/14 13:14:21;;;;;;;7.50;2.45;;;;;;;;;;5069622;28;20316;-65
2023/05/14 13:16:46;;;;;;;3.83;2.22;;;;;;;;;;5068228;28;20210;-65
2023/05/14 13:19:11;;;;;;;5.93;2.20;;;;;;;;;;5069009;28;20573;-65
2023/05/14 13:21:37;;;;;;;5.75;2.40;;;;;;;;;;5069163;28;20210;-65
2023/05/14 13:24:03;;;;;;;8.00;3.10;;;;;;;;;;5069803;28;20234;-64
2023/05/14 13:26:28;;;;;;;4.50;2.47;;;;;;;;;;5069310;28;20728;-64
2023/05/14 13:28:53;;;;;;;6.50;2.28;;;;;;;;;;5069994;28;20271;-65
2023/05/14 13:31:18;;;;;;;5.25;2.63;;;;;;;;;;5069445;28;20623;-65
2023/05/14 13:33:44;;;;;;;6.15;2.30;;;;;;;;;;5069222;28;20206;-64
2023/05/14 13:36:10;;;;;;;3.72;2.30;;;;;;;;;;5069330;28;20213;-64
2023/05/14 13:38:35;;;;;;;4.43;2.67;;;;;;;;;;5070018;28;20234;-64
2023/05/14 13:41:01;;;;;;;4.88;2.65;;;;;;;;;;5068761;28;20553;-63
2023/05/14 13:43:28;;;;;;;4.45;2.35;;;;;;;;;;5076650;28;20210;-64
2023/05/14 13:45:53;;;;;;;5.90;2.75;;;;;;;;;;5090166;28;20293;-65
2023/05/14 13:48:18;;;;;;;6.10;2.42;;;;;;;;;;5088832;28;20289;-64
2023/05/14 13:50:44;;;;;;;8.70;2.70;;;;;;;;;;5089922;28;20726;-64
2023/05/14 13:53:09;;;;;;;7.55;2.95;;;;;;;;;;5089397;28;20213;-64
2023/05/14 13:55:35;;;;;;;8.88;2.90;;;;;;;;;;5089292;28;20212;-65
2023/05/14 13:58:00;;;;;;;4.30;2.90;;;;;;;;;;5089928;28;20212;-65
2023/05/14 14:00:26;;;;;;;4.43;3.13;;;;;;;;;;5089564;28;20614;-65
2023/05/14 14:02:51;;;;;;;5.50;2.60;;;;;;;;;;5089148;28;20457;-65
2023/05/14 14:05:17;;;;;;;5.35;2.80;;;;;;;;;;5087664;28;20226;-64
2023/05/14 14:07:42;;;;;;;4.03;2.60;;;;;;;;;;5072192;28;20207;-65
2023/05/14 14:10:07;;;;;;;6.93;2.85;;;;;;;;;;5077631;28;20289;-64
2023/05/14 14:12:33;;;;;;;4.97;2.58;;;;;;;;;;5089609;28;20563;-64
2023/05/14 14:14:58;;;;;;;6.50;2.75;;;;;;;;;;5088930;28;20249;-64
2023/05/14 14:17:23;;;;;;;5.22;2.83;;;;;;;;;;5075792;28;20566;-64